createdAt,value
2022-08-02T00:00:35.131Z,7.63
2022-08-02T00:03:02.967Z,5.00
2022-08-02T00:05:32.187Z,7.90
2022-08-02T00:08:00.039Z,10.68
2022-08-02T00:10:28.064Z,6.90
2022-08-02T00:12:55.944Z,7.25
2022-08-02T00:15:23.828Z,8.38
2022-08-02T00:17:51.636Z,5.55
2022-08-02T00:20:19.865Z,6.75
2022-08-02T00:22:49.092Z,7.07
2022-08-02T00:25:16.889Z,7.20
2022-08-02T00:27:44.693Z,4.22
2022-08-02T00:30:13.346Z,5.50
2022-08-02T00:32:41.106Z,7.47
2022-08-02T00:35:09.975Z,6.60
2022-08-02T00:37:40.440Z,6.55
2022-08-02T00:40:11.700Z,6.40
2022-08-02T00:42:40.101Z,4.03
2022-08-02T00:45:08.859Z,5.03
2022-08-02T00:47:36.654Z,6.15
2022-08-02T00:50:05.157Z,4.22
2022-08-02T00:52:33.063Z,5.05
2022-08-02T00:55:00.890Z,6.25
2022-08-02T00:57:30.117Z,6.43
2022-08-02T00:59:57.942Z,4.75
2022-08-02T01:02:25.775Z,5.22
2022-08-02T01:04:53.612Z,7.25
2022-08-02T01:07:21.773Z,7.70
2022-08-02T01:09:49.566Z,8.80
2022-08-02T01:12:17.736Z,5.93
2022-08-02T01:14:49.569Z,5.55
2022-08-02T01:17:21.525Z,6.38
2022-08-02T01:19:56.623Z,5.78
2022-08-02T01:23:03.041Z,5.97
2022-08-02T01:25:51.610Z,8.68
2022-08-02T01:28:39.981Z,6.18
2022-08-02T01:31:15.672Z,8.77
2022-08-02T01:33:48.722Z,5.20
2022-08-02T01:36:19.962Z,6.05
2022-08-02T01:38:50.653Z,6.43
2022-08-02T01:41:20.864Z,5.50
2022-08-02T01:43:54.919Z,6.03
2022-08-02T01:46:24.236Z,5.95
2022-08-02T01:48:54.562Z,7.72
2022-08-02T01:51:44.073Z,6.78
2022-08-02T01:54:18.702Z,7.70
2022-08-02T01:56:49.013Z,6.10
2022-08-02T01:59:22.856Z,5.30
2022-08-02T02:01:55.207Z,6.38
2022-08-02T02:06:52.563Z,5.35
2022-08-02T02:09:22.500Z,7.65
2022-08-02T02:12:06.353Z,7.53
2022-08-02T02:14:51.734Z,6.97
2022-08-02T02:17:50.689Z,6.00
2022-08-02T02:20:14.212Z,5.45
2022-08-02T02:22:42.141Z,6.10
2022-08-02T02:25:11.611Z,5.53
2022-08-02T02:27:44.266Z,6.22
2022-08-02T02:30:14.669Z,8.30
2022-08-02T02:32:45.336Z,8.38
2022-08-02T02:35:17.653Z,7.97
2022-08-02T02:37:49.105Z,5.97
2022-08-02T02:40:19.169Z,6.78
2022-08-02T02:42:49.480Z,7.30
2022-08-02T02:45:21.526Z,7.50
2022-08-02T02:47:50.893Z,5.07
2022-08-02T02:50:20.027Z,5.97
2022-08-02T02:52:49.351Z,6.97
2022-08-02T02:55:19.050Z,6.05
2022-08-02T02:57:47.673Z,6.80
2022-08-02T03:00:16.481Z,6.22
2022-08-02T03:02:46.974Z,5.53
2022-08-02T03:05:15.850Z,5.63
2022-08-02T03:07:43.706Z,5.93
2022-08-02T03:10:12.248Z,6.82
2022-08-02T03:12:40.302Z,6.78
2022-08-02T03:15:11.478Z,6.50
2022-08-02T03:17:43.609Z,7.32
2022-08-02T03:20:15.412Z,8.38
2022-08-02T03:22:43.743Z,6.32
2022-08-02T03:25:12.412Z,5.45
2022-08-02T03:27:40.578Z,7.07
2022-08-02T03:30:10.308Z,7.25
2022-08-02T03:32:40.057Z,6.15
2022-08-02T03:35:10.441Z,6.85
2022-08-02T03:37:41.472Z,6.32
2022-08-02T03:40:14.217Z,4.95
2022-08-02T03:42:42.899Z,6.90
2022-08-02T03:45:13.356Z,7.40
2022-08-02T03:47:41.974Z,6.35
2022-08-02T03:50:13.315Z,7.65
2022-08-02T03:52:45.253Z,7.28
2022-08-02T03:55:14.382Z,6.80
2022-08-02T03:57:43.738Z,6.47
2022-08-02T04:00:14.203Z,5.97
2022-08-02T04:02:41.966Z,6.18
2022-08-02T04:05:10.038Z,6.43
2022-08-02T04:08:32.598Z,7.70
2022-08-02T04:10:27.198Z,6.40
2022-08-02T04:12:55.624Z,6.85
2022-08-02T04:15:25.046Z,9.05
2022-08-02T04:17:57.605Z,7.97
2022-08-02T04:20:28.968Z,6.38
2022-08-02T04:23:07.636Z,11.57
2022-08-02T04:25:40.165Z,6.85
2022-08-02T04:28:17.511Z,9.02
2022-08-02T04:30:47.408Z,9.55
2022-08-02T04:33:15.772Z,7.97
2022-08-02T04:35:43.832Z,6.68
2022-08-02T04:38:13.497Z,8.27
2022-08-02T04:40:50.844Z,8.18
2022-08-02T04:43:20.031Z,8.48
2022-08-02T04:45:49.503Z,9.15
2022-08-02T04:48:17.373Z,9.40
2022-08-02T04:50:45.280Z,8.85
2022-08-02T04:53:13.184Z,10.95
2022-08-02T04:55:42.314Z,7.95
2022-08-02T04:58:38.277Z,10.52
2022-08-02T05:00:58.128Z,10.88
2022-08-02T05:03:25.934Z,10.13
2022-08-02T05:05:53.751Z,13.23
2022-08-02T05:08:21.543Z,8.45
2022-08-02T05:10:50.725Z,10.73
2022-08-02T05:13:18.487Z,9.88
2022-08-02T05:15:49.107Z,11.77
2022-08-02T05:18:17.010Z,8.70
2022-08-02T05:20:47.409Z,9.52
2022-08-02T05:23:15.261Z,10.77
2022-08-02T05:25:43.015Z,11.50
2022-08-02T05:28:12.308Z,9.02
2022-08-02T05:30:40.454Z,11.23
2022-08-02T05:33:08.750Z,8.55
2022-08-02T05:35:36.695Z,9.05
2022-08-02T05:38:04.655Z,8.57
2022-08-02T05:40:54.490Z,10.27
2022-08-02T05:43:24.359Z,10.95
2022-08-02T05:45:53.616Z,11.32
2022-08-02T05:48:22.160Z,15.13
2022-08-02T05:50:55.810Z,14.30
2022-08-02T05:53:36.386Z,13.00
2022-08-02T05:56:14.211Z,16.90
2022-08-02T05:58:51.197Z,15.82
2022-08-02T06:01:28.691Z,15.65
2022-08-02T06:03:58.946Z,12.98
2022-08-02T06:06:27.640Z,16.23
2022-08-02T06:09:00.544Z,15.82
2022-08-02T06:11:36.687Z,17.92
2022-08-02T06:14:07.343Z,15.55
2022-08-02T06:16:36.857Z,17.75
2022-08-02T06:19:10.869Z,14.90
2022-08-02T06:22:31.191Z,14.50
2022-08-02T06:24:31.587Z,15.13
2022-08-02T06:27:00.730Z,16.13
2022-08-02T06:29:38.347Z,14.55
2022-08-02T06:32:08.991Z,17.15
2022-08-02T06:34:38.483Z,13.45
2022-08-02T06:37:14.145Z,14.52
2022-08-02T06:39:48.746Z,13.52
2022-08-02T06:42:26.944Z,12.20
2022-08-02T06:44:58.064Z,12.77
2022-08-02T06:47:26.448Z,16.92
2022-08-02T06:49:55.064Z,14.60
2022-08-02T06:52:29.236Z,15.32
2022-08-02T06:54:58.326Z,14.65
2022-08-02T06:57:26.428Z,14.50
2022-08-02T06:59:54.316Z,12.55
2022-08-02T07:02:23.674Z,14.38
2022-08-02T07:04:52.083Z,21.85
2022-08-02T07:07:20.086Z,15.15
2022-08-02T07:10:00.708Z,46.40
2022-08-02T07:12:31.070Z,12.55
2022-08-02T07:14:59.378Z,11.77
2022-08-02T07:17:28.755Z,15.15
2022-08-02T07:19:56.741Z,10.90
2022-08-02T07:22:26.889Z,12.05
2022-08-02T07:24:55.809Z,13.43
2022-08-02T07:27:24.012Z,11.63
2022-08-02T07:29:52.217Z,14.93
2022-08-02T07:32:22.559Z,12.43
2022-08-02T07:34:53.027Z,13.65
2022-08-02T07:37:36.081Z,10.15
2022-08-02T07:40:14.639Z,12.38
2022-08-02T07:42:43.449Z,11.82
2022-08-02T07:45:12.694Z,10.68
2022-08-02T07:47:41.286Z,16.80
2022-08-02T07:50:12.184Z,12.15
2022-08-02T07:52:40.805Z,15.15
2022-08-02T07:55:09.901Z,16.15
2022-08-02T07:57:41.239Z,14.63
2022-08-02T08:00:12.864Z,12.20
2022-08-02T08:02:40.860Z,10.48
2022-08-02T08:05:10.846Z,9.25
2022-08-02T08:07:39.008Z,11.57
2022-08-02T08:10:08.375Z,25.65
2022-08-02T08:12:36.453Z,9.30
2022-08-02T08:15:04.621Z,10.52
2022-08-02T08:17:32.632Z,12.65
2022-08-02T08:20:00.505Z,9.77
2022-08-02T08:22:29.644Z,11.07
2022-08-02T08:24:57.658Z,15.38
2022-08-02T08:27:25.804Z,9.55
2022-08-02T08:29:53.630Z,10.07
2022-08-02T08:32:21.827Z,14.45
2022-08-02T08:34:51.265Z,14.23
2022-08-02T08:37:19.386Z,17.75
2022-08-02T08:39:56.586Z,16.08
2022-08-02T08:42:26.837Z,12.82
2022-08-02T08:44:56.012Z,12.60
2022-08-02T08:47:25.069Z,10.25
2022-08-02T08:49:56.001Z,8.77
2022-08-02T08:52:27.816Z,12.18
2022-08-02T08:54:59.255Z,11.00
2022-08-02T08:57:30.666Z,9.00
2022-08-02T08:59:58.533Z,8.68
2022-08-02T09:02:28.506Z,9.63
2022-08-02T09:04:56.873Z,6.15
2022-08-02T09:07:24.832Z,9.00
2022-08-02T09:09:52.644Z,6.20
2022-08-02T09:12:24.946Z,5.80
2022-08-02T09:14:52.999Z,5.20
2022-08-02T09:17:22.012Z,6.32
2022-08-02T09:20:08.190Z,6.75
2022-08-02T09:22:35.943Z,4.97
2022-08-02T09:25:03.728Z,7.22
2022-08-02T09:27:38.075Z,6.05
2022-08-02T09:30:14.347Z,5.82
2022-08-02T09:32:47.828Z,5.70
2022-08-02T09:36:07.022Z,6.25
2022-08-02T09:38:19.881Z,7.10
2022-08-02T09:40:47.733Z,5.65
2022-08-02T09:43:17.483Z,5.82
2022-08-02T09:45:47.016Z,6.95
2022-08-02T09:48:14.734Z,6.05
2022-08-02T09:50:42.897Z,6.40
2022-08-02T09:53:13.915Z,4.95
2022-08-02T09:55:42.522Z,5.30
2022-08-02T09:58:22.200Z,5.22
2022-08-02T10:00:54.627Z,4.97
2022-08-02T10:03:22.989Z,5.30
2022-08-02T10:08:33.040Z,5.82
2022-08-02T10:11:02.482Z,7.50
2022-08-02T10:13:35.540Z,4.60
2022-08-02T10:16:04.755Z,4.72
2022-08-02T10:18:41.113Z,3.83
2022-08-02T10:21:14.458Z,5.03
2022-08-02T10:23:44.829Z,5.10
2022-08-02T10:26:17.209Z,6.20
2022-08-02T10:28:49.451Z,5.82
2022-08-02T10:31:21.812Z,5.50
2022-08-02T10:33:52.921Z,3.80
2022-08-02T10:36:23.596Z,4.87
2022-08-02T10:38:51.835Z,5.13
2022-08-02T10:41:45.334Z,6.75
2022-08-02T10:44:27.135Z,5.57
2022-08-02T10:47:22.234Z,6.03
2022-08-02T10:49:51.638Z,4.93
2022-08-02T10:52:19.781Z,6.25
2022-08-02T10:54:53.197Z,4.70
2022-08-02T10:57:26.093Z,4.75
2022-08-02T10:59:57.518Z,4.57
2022-08-02T11:02:37.957Z,4.88
2022-08-02T11:05:15.563Z,6.05
2022-08-02T11:07:47.622Z,7.28
2022-08-02T11:10:36.630Z,5.72
2022-08-02T11:13:09.274Z,4.18
2022-08-02T11:16:01.300Z,3.25
2022-08-02T11:19:08.286Z,3.60
2022-08-02T11:21:36.919Z,4.15
2022-08-02T11:24:27.442Z,3.35
2022-08-02T11:26:55.735Z,3.13
2022-08-02T11:29:32.382Z,3.70
2022-08-02T11:32:09.606Z,4.07
2022-08-02T11:34:40.095Z,4.68
2022-08-02T11:37:07.963Z,5.15
2022-08-02T11:39:35.773Z,6.78
2022-08-02T11:42:03.590Z,6.57
2022-08-02T11:44:40.356Z,5.05
2022-08-02T11:47:09.619Z,3.13
2022-08-02T11:49:43.569Z,4.47
2022-08-02T11:52:12.117Z,3.28
2022-08-02T11:54:43.349Z,3.22
2022-08-02T11:57:18.510Z,3.08
2022-08-02T11:59:49.356Z,3.40
2022-08-02T12:02:19.279Z,3.20
2022-08-02T12:04:54.616Z,3.33
2022-08-02T12:07:34.836Z,4.53
2022-08-02T12:10:07.580Z,4.38
2022-08-02T12:12:35.599Z,3.60
2022-08-02T12:15:03.393Z,2.90
2022-08-02T12:18:07.553Z,4.93
2022-08-02T12:20:39.257Z,3.60
2022-08-02T12:23:07.039Z,2.70
2022-08-02T12:25:35.480Z,3.58
2022-08-02T12:28:18.412Z,2.75
2022-08-02T12:30:53.986Z,3.08
2022-08-02T12:33:24.335Z,2.63
2022-08-02T12:35:52.531Z,4.47
2022-08-02T12:38:20.393Z,2.78
2022-08-02T12:40:48.772Z,3.28
2022-08-02T12:43:21.843Z,2.70
2022-08-02T12:45:51.542Z,4.22
2022-08-02T12:48:37.474Z,3.15
2022-08-02T12:51:23.733Z,3.40
2022-08-02T12:53:58.905Z,3.30
2022-08-02T12:56:29.426Z,4.35
2022-08-02T12:58:57.771Z,5.00
2022-08-02T13:01:27.902Z,3.40
2022-08-02T13:04:12.273Z,2.58
2022-08-02T13:06:44.793Z,2.80
2022-08-02T13:11:43.005Z,2.67
2022-08-02T13:14:12.435Z,3.83
2022-08-02T13:16:40.892Z,4.57
2022-08-02T13:19:10.109Z,3.40
2022-08-02T13:22:02.831Z,3.65
2022-08-02T13:24:41.023Z,3.00
2022-08-02T13:27:20.816Z,3.50
2022-08-02T13:29:49.838Z,6.40
2022-08-02T13:32:17.975Z,3.17
2022-08-02T13:34:47.309Z,3.83
2022-08-02T13:37:16.073Z,3.58
2022-08-02T13:40:00.022Z,3.95
2022-08-02T13:42:32.241Z,5.13
2022-08-02T13:45:00.029Z,4.18
2022-08-02T13:47:36.661Z,3.25
2022-08-02T13:50:17.446Z,7.03
2022-08-02T13:52:45.381Z,3.53
2022-08-02T13:55:13.151Z,3.63
2022-08-02T13:57:41.405Z,3.50
2022-08-02T14:00:11.202Z,3.67
2022-08-02T14:02:40.585Z,3.17
2022-08-02T14:05:09.371Z,3.58
2022-08-02T14:07:39.019Z,3.13
2022-08-02T14:10:07.852Z,4.70
2022-08-02T14:12:35.643Z,3.33
2022-08-02T14:15:03.496Z,4.13
2022-08-02T14:17:31.311Z,4.90
2022-08-02T14:19:59.215Z,2.92
2022-08-02T14:22:28.718Z,2.65
2022-08-02T14:24:57.895Z,3.28
2022-08-02T14:27:39.329Z,3.17
2022-08-02T14:30:08.639Z,2.65
2022-08-02T14:32:36.482Z,4.47
2022-08-02T14:35:04.545Z,3.60
2022-08-02T14:37:32.800Z,3.83
2022-08-02T14:40:02.031Z,3.40
2022-08-02T14:42:29.856Z,3.08
2022-08-02T14:44:57.730Z,3.83
2022-08-02T14:47:25.634Z,4.35
2022-08-02T14:49:53.617Z,3.70
2022-08-02T14:52:21.471Z,2.92
2022-08-02T14:54:49.466Z,4.47
2022-08-02T14:57:18.789Z,4.32
2022-08-02T14:59:47.282Z,6.38
2022-08-02T15:02:15.515Z,2.40
2022-08-02T15:04:44.104Z,3.00
2022-08-02T15:07:12.951Z,2.33
2022-08-02T15:09:40.818Z,2.13
2022-08-02T15:12:09.699Z,3.42
2022-08-02T15:14:39.399Z,4.93
2022-08-02T15:17:07.781Z,3.75
2022-08-02T15:20:00.127Z,2.35
2022-08-02T15:22:23.756Z,4.38
2022-08-02T15:24:51.981Z,2.80
2022-08-02T15:27:19.791Z,3.20
2022-08-02T15:29:48.974Z,2.08
2022-08-02T15:32:18.835Z,1.73
2022-08-02T15:34:48.884Z,1.70
2022-08-02T15:37:16.812Z,2.30
2022-08-02T15:39:44.751Z,2.08
2022-08-02T15:42:13.492Z,2.83
2022-08-02T15:44:41.645Z,2.15
2022-08-02T15:47:10.898Z,3.75
2022-08-02T15:49:41.485Z,2.67
2022-08-02T15:52:10.384Z,4.18
2022-08-02T15:54:57.130Z,5.87
2022-08-02T15:57:37.486Z,2.78
2022-08-02T16:00:15.704Z,2.63
2022-08-02T16:02:48.472Z,2.35
2022-08-02T16:05:17.949Z,2.28
2022-08-02T16:07:46.617Z,2.50
2022-08-02T16:10:15.110Z,2.00
2022-08-02T16:12:43.189Z,2.25
2022-08-02T16:15:12.633Z,2.05
2022-08-02T16:17:53.737Z,2.63
2022-08-02T16:22:51.444Z,2.55
2022-08-02T16:25:19.323Z,2.95
2022-08-02T16:28:06.245Z,1.98
2022-08-02T16:30:35.327Z,4.70
2022-08-02T16:33:03.595Z,5.20
2022-08-02T16:35:34.799Z,2.40
2022-08-02T16:38:02.695Z,3.58
2022-08-02T16:40:30.728Z,2.63
2022-08-02T16:42:58.671Z,4.32
2022-08-02T16:45:28.456Z,2.72
2022-08-02T16:48:03.567Z,3.47
2022-08-02T16:50:35.507Z,2.70
2022-08-02T16:53:07.411Z,4.30
2022-08-02T16:55:35.931Z,4.60
2022-08-02T16:58:03.919Z,3.42
2022-08-02T17:00:38.009Z,3.05
2022-08-02T17:03:13.460Z,5.22
2022-08-02T17:05:56.835Z,2.50
2022-08-02T17:08:32.060Z,2.55
2022-08-02T17:11:03.596Z,2.85
2022-08-02T17:13:34.446Z,3.92
2022-08-02T17:16:25.782Z,2.95
2022-08-02T17:18:54.765Z,2.35
2022-08-02T17:21:24.032Z,3.67
2022-08-02T17:24:04.887Z,2.25
2022-08-02T17:26:34.496Z,2.42
2022-08-02T17:29:14.256Z,3.55
2022-08-02T17:31:46.540Z,3.83
2022-08-02T17:34:32.560Z,2.78
2022-08-02T17:37:06.139Z,3.20
2022-08-02T17:39:43.933Z,1.90
2022-08-02T17:42:20.088Z,3.42
2022-08-02T17:44:50.866Z,3.95
2022-08-02T17:47:19.426Z,3.45
2022-08-02T17:49:48.986Z,1.90
2022-08-02T17:52:51.701Z,2.00
2022-08-02T17:55:07.643Z,3.95
2022-08-02T17:57:57.619Z,2.30
2022-08-02T18:00:24.755Z,3.30
2022-08-02T18:02:55.426Z,2.20
2022-08-02T18:08:18.337Z,2.53
2022-08-02T18:10:51.093Z,4.30
2022-08-02T18:13:19.010Z,3.03
2022-08-02T18:15:47.575Z,2.60
2022-08-02T18:18:19.258Z,3.80
2022-08-02T18:20:57.471Z,2.30
2022-08-02T18:23:26.909Z,2.58
2022-08-02T18:25:55.771Z,2.58
2022-08-02T18:28:30.986Z,3.00
2022-08-02T18:31:22.586Z,2.55
2022-08-02T18:33:59.320Z,2.28
2022-08-02T18:36:47.270Z,3.85
2022-08-02T18:39:17.041Z,3.85
2022-08-02T18:41:47.773Z,3.10
2022-08-02T18:44:16.627Z,4.17
2022-08-02T18:46:44.628Z,2.42
2022-08-02T18:49:14.638Z,3.80
2022-08-02T18:51:44.178Z,2.40
2022-08-02T18:54:12.092Z,2.90
2022-08-02T18:56:47.417Z,2.17
2022-08-02T18:59:16.095Z,2.55
2022-08-02T19:01:51.043Z,4.43
2022-08-02T19:04:26.942Z,2.47
2022-08-02T19:06:55.973Z,1.95
2022-08-02T19:09:23.957Z,3.53
2022-08-02T19:11:55.266Z,3.22
2022-08-02T19:14:27.863Z,4.70
2022-08-02T19:16:58.069Z,7.32
2022-08-02T19:19:28.983Z,6.10
2022-08-02T19:22:15.741Z,4.63
2022-08-02T19:24:47.126Z,4.07
2022-08-02T19:27:25.627Z,3.03
2022-08-02T19:29:59.078Z,4.25
2022-08-02T19:32:41.946Z,2.78
2022-08-02T19:35:30.611Z,3.95
2022-08-02T19:38:09.342Z,2.43
2022-08-02T19:40:42.251Z,3.60
2022-08-02T19:44:26.076Z,2.85
2022-08-02T19:46:00.932Z,2.78
2022-08-02T19:48:29.136Z,4.80
2022-08-02T19:51:00.507Z,4.00
2022-08-02T19:53:47.859Z,3.50
2022-08-02T19:56:20.846Z,4.40
2022-08-02T19:58:55.067Z,4.32
2022-08-02T20:01:36.762Z,4.50
2022-08-02T20:04:13.524Z,3.72
2022-08-02T20:06:47.805Z,4.50
2022-08-02T20:09:23.161Z,2.85
2022-08-02T20:11:54.478Z,2.83
2022-08-02T20:14:27.622Z,3.78
2022-08-02T20:16:56.845Z,4.60
2022-08-02T20:19:25.371Z,3.60
2022-08-02T20:21:59.776Z,4.30
2022-08-02T20:24:29.672Z,2.58
2022-08-02T20:26:59.346Z,5.90
2022-08-02T20:29:48.446Z,3.28
2022-08-02T20:32:22.719Z,4.95
2022-08-02T20:34:53.203Z,3.03
2022-08-02T20:38:00.170Z,6.13
2022-08-02T20:40:17.061Z,4.28
2022-08-02T20:42:47.594Z,3.50
2022-08-02T20:45:18.528Z,4.95
2022-08-02T20:47:50.867Z,2.72
2022-08-02T20:50:36.827Z,3.08
2022-08-02T20:53:06.018Z,4.85
2022-08-02T20:55:34.092Z,3.42
2022-08-02T20:58:03.017Z,3.22
2022-08-02T21:00:32.812Z,4.15
2022-08-02T21:03:02.546Z,4.30
2022-08-02T21:05:55.226Z,3.00
2022-08-02T21:08:21.467Z,4.68
2022-08-02T21:10:51.783Z,4.10
2022-08-02T21:13:24.092Z,4.65
2022-08-02T21:15:55.473Z,5.10
2022-08-02T21:18:29.816Z,4.95
2022-08-02T21:21:09.413Z,3.03
2022-08-02T21:23:37.462Z,2.35
2022-08-02T21:26:06.634Z,4.60
2022-08-02T21:31:29.702Z,3.97
2022-08-02T21:34:00.347Z,4.78
2022-08-02T21:36:58.463Z,4.93
2022-08-02T21:39:26.321Z,4.07
2022-08-02T21:42:00.214Z,2.67
2022-08-02T21:44:28.157Z,4.13
2022-08-02T21:46:58.700Z,5.05
2022-08-02T21:50:08.462Z,5.43
2022-08-02T21:52:17.193Z,3.55
2022-08-02T21:54:45.889Z,4.57
2022-08-02T21:57:16.571Z,5.10
2022-08-02T21:59:45.914Z,4.80
2022-08-02T22:02:16.511Z,4.57
2022-08-02T22:04:47.608Z,3.90
2022-08-02T22:07:17.084Z,5.40
2022-08-02T22:09:48.259Z,3.88
2022-08-02T22:14:53.965Z,7.65
2022-08-02T22:17:53.026Z,5.13
2022-08-02T22:20:22.357Z,6.22
2022-08-02T22:22:52.234Z,4.38
2022-08-02T22:25:27.154Z,4.28
2022-08-02T22:28:35.715Z,3.85
2022-08-02T22:30:53.766Z,4.22
2022-08-02T22:33:42.110Z,3.42
2022-08-02T22:36:11.569Z,4.93
2022-08-02T22:38:44.660Z,4.10
2022-08-02T22:41:13.511Z,5.30
2022-08-02T22:43:41.720Z,4.22
2022-08-02T22:46:09.907Z,4.07
2022-08-02T22:48:45.719Z,3.92
2022-08-02T22:51:13.939Z,3.97
2022-08-02T22:53:42.215Z,3.05
2022-08-02T22:56:10.607Z,3.58
2022-08-02T22:58:43.166Z,3.27
2022-08-02T23:01:26.563Z,4.50
2022-08-02T23:03:55.773Z,4.22
2022-08-02T23:06:23.630Z,4.38
2022-08-02T23:08:51.580Z,4.30
2022-08-02T23:11:19.390Z,4.00
2022-08-02T23:13:47.143Z,5.30
2022-08-02T23:16:37.708Z,5.10
2022-08-02T23:19:24.801Z,5.20
2022-08-02T23:22:02.749Z,5.38
2022-08-02T23:24:33.080Z,6.70
2022-08-02T23:27:01.477Z,4.05
2022-08-02T23:29:29.310Z,4.07
2022-08-02T23:31:57.343Z,6.05
2022-08-02T23:34:28.405Z,3.65
2022-08-02T23:36:56.237Z,6.03
2022-08-02T23:39:24.138Z,4.90
2022-08-02T23:41:55.176Z,4.90
2022-08-02T23:44:23.845Z,6.87
2022-08-02T23:46:52.212Z,5.95
2022-08-02T23:49:20.408Z,5.05
2022-08-02T23:51:50.788Z,8.40
2022-08-02T23:54:19.214Z,6.85
2022-08-02T23:56:47.648Z,7.97
2022-08-02T23:59:15.598Z,6.03
